createdAt,value
2023-02-26T00:02:02.500Z,-1.70
2023-02-26T00:04:51.257Z,-1.60
2023-02-26T00:07:40.198Z,-1.60
2023-02-26T00:10:30.351Z,-1.60
2023-02-26T00:13:19.488Z,-1.60
2023-02-26T00:16:18.651Z,-1.60
2023-02-26T00:19:09.444Z,-1.60
2023-02-26T00:21:58.612Z,-1.60
2023-02-26T00:24:47.248Z,-1.50
2023-02-26T00:27:37.749Z,-1.50
2023-02-26T00:30:26.912Z,-1.40
2023-02-26T00:33:16.038Z,-1.50
2023-02-26T00:36:15.821Z,-1.50
2023-02-26T00:39:13.521Z,-1.50
2023-02-26T00:42:02.749Z,-1.40
2023-02-26T00:44:53.697Z,-1.40
2023-02-26T00:47:49.997Z,-1.40
2023-02-26T00:50:44.412Z,-1.30
2023-02-26T00:53:37.818Z,-1.30
2023-02-26T00:56:26.563Z,-1.40
2023-02-26T00:59:15.289Z,-1.40
2023-02-26T01:02:05.312Z,-1.40
2023-02-26T01:04:54.564Z,-1.50
2023-02-26T01:07:48.928Z,-1.50
2023-02-26T01:10:38.150Z,-1.50
2023-02-26T01:13:27.086Z,-1.60
2023-02-26T01:16:22.390Z,-1.60
2023-02-26T01:19:21.850Z,-1.60
2023-02-26T01:22:14.437Z,-1.60
2023-02-26T01:25:06.972Z,-1.60
2023-02-26T01:27:57.847Z,-1.50
2023-02-26T01:30:47.115Z,-1.50
2023-02-26T01:33:42.411Z,-1.50
2023-02-26T01:36:37.544Z,-1.60
2023-02-26T01:39:33.321Z,-1.50
2023-02-26T01:42:26.974Z,-1.60
2023-02-26T01:45:19.169Z,-1.60
2023-02-26T01:48:12.950Z,-1.50
2023-02-26T01:51:01.865Z,-1.50
2023-02-26T01:53:52.340Z,-1.50
2023-02-26T01:56:42.263Z,-1.50
2023-02-26T01:59:31.003Z,-1.50
2023-02-26T02:02:22.162Z,-1.50
2023-02-26T02:05:23.023Z,-1.50
2023-02-26T02:08:12.321Z,-1.50
2023-02-26T02:11:03.379Z,-1.60
2023-02-26T02:14:11.523Z,-1.60
2023-02-26T02:17:08.904Z,-1.60
2023-02-26T02:20:27.969Z,-1.70
2023-02-26T02:23:20.698Z,-1.70
2023-02-26T02:26:34.958Z,-1.80
2023-02-26T02:29:48.678Z,-1.90
2023-02-26T02:32:41.240Z,-1.90
2023-02-26T02:35:33.673Z,-2.00
2023-02-26T02:38:26.283Z,-2.00
2023-02-26T02:41:20.528Z,-2.10
2023-02-26T02:44:15.296Z,-2.10
2023-02-26T02:47:06.569Z,-2.00
2023-02-26T02:50:03.929Z,-2.00
2023-02-26T02:52:55.743Z,-2.00
2023-02-26T02:55:50.316Z,-2.00
2023-02-26T02:58:44.246Z,-2.10
2023-02-26T03:01:35.511Z,-2.30
2023-02-26T03:04:24.187Z,-2.30
2023-02-26T03:07:14.243Z,-2.30
2023-02-26T03:10:02.934Z,-2.30
2023-02-26T03:12:51.874Z,-2.30
2023-02-26T03:15:48.790Z,-2.40
2023-02-26T03:18:51.969Z,-2.50
2023-02-26T03:21:48.310Z,-2.50
2023-02-26T03:24:47.348Z,-2.50
2023-02-26T03:27:42.685Z,-2.60
2023-02-26T03:30:38.074Z,-2.60
2023-02-26T03:33:32.229Z,-2.70
2023-02-26T03:36:25.970Z,-2.70
2023-02-26T03:39:21.578Z,-2.70
2023-02-26T03:42:16.511Z,-2.70
2023-02-26T03:45:09.046Z,-2.70
2023-02-26T03:47:59.983Z,-2.70
2023-02-26T03:50:51.742Z,-2.80
2023-02-26T03:53:45.640Z,-2.80
2023-02-26T03:56:40.529Z,-2.70
2023-02-26T03:59:30.773Z,-2.70
2023-02-26T04:02:23.768Z,-2.70
2023-02-26T04:05:16.067Z,-2.60
2023-02-26T04:08:05.039Z,-2.70
2023-02-26T04:10:59.416Z,-2.70
2023-02-26T04:13:49.526Z,-2.70
2023-02-26T04:16:39.624Z,-2.60
2023-02-26T04:19:28.700Z,-2.60
2023-02-26T04:22:17.802Z,-2.50
2023-02-26T04:25:07.564Z,-2.60
2023-02-26T04:27:56.268Z,-2.50
2023-02-26T04:30:45.183Z,-2.60
2023-02-26T04:33:35.235Z,-2.60
2023-02-26T04:36:24.346Z,-2.60
2023-02-26T04:39:13.320Z,-2.50
2023-02-26T04:42:01.945Z,-2.50
2023-02-26T04:44:50.603Z,-2.50
2023-02-26T04:47:39.328Z,-2.50
2023-02-26T04:50:29.375Z,-2.40
2023-02-26T04:53:18.035Z,-2.40
2023-02-26T04:56:07.951Z,-2.40
2023-02-26T04:58:56.649Z,-2.40
2023-02-26T05:01:45.294Z,-2.30
2023-02-26T05:04:34.276Z,-2.40
2023-02-26T05:07:24.358Z,-2.40
2023-02-26T05:10:13.602Z,-2.40
2023-02-26T05:13:02.323Z,-2.30
2023-02-26T05:15:50.976Z,-2.40
2023-02-26T05:18:39.631Z,-2.40
2023-02-26T05:21:28.315Z,-2.50
2023-02-26T05:24:18.549Z,-2.60
2023-02-26T05:27:07.192Z,-2.70
2023-02-26T05:29:55.768Z,-2.80
2023-02-26T05:32:44.547Z,-2.90
2023-02-26T05:35:33.443Z,-2.90
2023-02-26T05:38:22.088Z,-3.00
2023-02-26T05:41:12.110Z,-3.00
2023-02-26T05:44:00.686Z,-3.00
2023-02-26T05:46:49.463Z,-3.10
2023-02-26T05:49:38.228Z,-3.10
2023-02-26T05:52:26.849Z,-3.20
2023-02-26T05:55:15.429Z,-3.20
2023-02-26T05:58:05.476Z,-3.20
2023-02-26T06:00:54.116Z,-3.20
2023-02-26T06:03:44.370Z,-3.30
2023-02-26T06:06:33.102Z,-3.30
2023-02-26T06:09:21.690Z,-3.30
2023-02-26T06:12:10.700Z,-3.30
2023-02-26T06:15:00.662Z,-3.30
2023-02-26T06:17:49.273Z,-3.30
2023-02-26T06:20:38.271Z,-3.20
2023-02-26T06:23:26.947Z,-3.20
2023-02-26T06:26:15.560Z,-3.20
2023-02-26T06:29:04.430Z,-3.20
2023-02-26T06:31:54.519Z,-3.20
2023-02-26T06:34:43.106Z,-3.20
2023-02-26T06:37:31.702Z,-3.10
2023-02-26T06:40:20.488Z,-3.00
2023-02-26T06:43:09.135Z,-3.00
2023-02-26T06:45:59.989Z,-3.00
2023-02-26T06:48:50.031Z,-3.00
2023-02-26T06:51:38.670Z,-2.90
2023-02-26T06:54:27.317Z,-2.80
2023-02-26T06:57:15.986Z,-2.80
2023-02-26T07:00:06.626Z,-2.60
2023-02-26T07:02:55.336Z,-2.00
2023-02-26T07:05:46.060Z,-1.60
2023-02-26T07:08:34.692Z,-1.60
2023-02-26T07:11:23.691Z,-1.70
2023-02-26T07:14:12.602Z,-1.80
2023-02-26T07:17:01.751Z,-1.90
2023-02-26T07:19:52.050Z,-2.10
2023-02-26T07:22:42.110Z,-2.20
2023-02-26T07:25:30.721Z,-2.40
2023-02-26T07:28:20.705Z,-2.50
2023-02-26T07:31:09.384Z,-2.40
2023-02-26T07:33:58.318Z,-2.30
2023-02-26T07:36:46.932Z,-2.20
2023-02-26T07:39:36.945Z,-2.10
2023-02-26T07:42:25.610Z,-2.00
2023-02-26T07:45:14.600Z,-2.00
2023-02-26T07:48:03.288Z,-1.90
2023-02-26T07:50:53.629Z,-1.90
2023-02-26T07:53:42.238Z,-1.70
2023-02-26T07:56:32.236Z,-1.60
2023-02-26T07:59:20.859Z,-1.60
2023-02-26T08:02:09.677Z,-1.70
2023-02-26T08:04:58.324Z,-1.70
2023-02-26T08:07:46.943Z,-1.70
2023-02-26T08:10:35.601Z,-1.40
2023-02-26T08:13:25.619Z,-1.40
2023-02-26T08:16:14.289Z,-1.30
2023-02-26T08:19:02.950Z,-1.00
2023-02-26T08:21:51.734Z,-0.80
2023-02-26T08:24:40.349Z,-0.60
2023-02-26T08:27:28.995Z,-0.30
2023-02-26T08:30:19.445Z,0.00
2023-02-26T08:33:08.346Z,0.20
2023-02-26T08:35:59.143Z,0.20
2023-02-26T08:38:47.797Z,0.10
2023-02-26T08:41:36.747Z,0.20
2023-02-26T08:44:25.436Z,0.30
2023-02-26T08:47:21.768Z,0.30
2023-02-26T08:50:16.742Z,0.50
2023-02-26T08:53:05.419Z,0.40
2023-02-26T08:55:55.050Z,0.30
2023-02-26T08:58:43.913Z,0.40
2023-02-26T09:01:32.915Z,0.50
2023-02-26T09:04:23.129Z,1.00
2023-02-26T09:07:11.757Z,1.10
2023-02-26T09:10:00.426Z,1.40
2023-02-26T09:12:49.009Z,1.30
2023-02-26T09:15:37.745Z,1.50
2023-02-26T09:18:26.382Z,1.50
2023-02-26T09:21:16.417Z,1.70
2023-02-26T09:24:05.461Z,1.60
2023-02-26T09:26:54.035Z,1.70
2023-02-26T09:29:42.697Z,1.80
2023-02-26T09:32:31.464Z,2.20
2023-02-26T09:35:20.377Z,2.10
2023-02-26T09:38:10.605Z,1.40
2023-02-26T09:41:01.440Z,1.10
2023-02-26T09:44:02.323Z,0.70
2023-02-26T09:46:58.971Z,0.90
2023-02-26T09:49:57.546Z,1.00
2023-02-26T09:52:52.391Z,1.10
2023-02-26T09:55:45.138Z,0.90
2023-02-26T09:58:36.189Z,0.50
2023-02-26T10:01:30.107Z,0.40
2023-02-26T10:04:28.402Z,0.70
2023-02-26T10:07:29.355Z,2.10
2023-02-26T10:10:30.345Z,3.80
2023-02-26T10:13:34.224Z,4.90
2023-02-26T10:16:28.393Z,5.20
2023-02-26T10:19:21.214Z,5.40
2023-02-26T10:22:17.911Z,5.60
2023-02-26T10:25:12.413Z,5.50
2023-02-26T10:28:07.828Z,4.60
2023-02-26T10:31:03.592Z,3.30
2023-02-26T10:33:59.094Z,2.10
2023-02-26T10:36:53.343Z,1.60
2023-02-26T10:39:48.879Z,1.20
2023-02-26T10:42:46.816Z,0.90
2023-02-26T10:45:43.877Z,0.80
2023-02-26T10:48:55.686Z,0.90
2023-02-26T10:51:46.723Z,0.80
2023-02-26T10:54:38.409Z,0.70
2023-02-26T10:57:33.746Z,0.70
2023-02-26T11:00:23.786Z,0.90
2023-02-26T11:03:19.111Z,0.80
2023-02-26T11:06:10.148Z,0.70
2023-02-26T11:09:02.042Z,0.70
2023-02-26T11:11:53.904Z,0.70
2023-02-26T11:14:44.359Z,0.80
2023-02-26T11:17:34.369Z,0.80
2023-02-26T11:20:32.605Z,0.70
2023-02-26T11:23:27.347Z,0.60
2023-02-26T11:26:19.221Z,0.50
2023-02-26T11:29:08.064Z,0.40
2023-02-26T11:31:58.356Z,0.50
2023-02-26T11:34:50.251Z,0.60
2023-02-26T11:37:41.497Z,0.60
2023-02-26T11:40:39.204Z,0.60
2023-02-26T11:43:35.018Z,0.60
2023-02-26T11:46:26.586Z,0.60
2023-02-26T11:49:19.158Z,0.80
2023-02-26T11:52:19.385Z,0.90
2023-02-26T11:55:20.097Z,1.40
2023-02-26T11:58:24.847Z,1.90
2023-02-26T12:01:16.722Z,2.10
2023-02-26T12:04:06.050Z,1.70
2023-02-26T12:06:56.427Z,1.80
2023-02-26T12:09:46.353Z,2.10
2023-02-26T12:12:50.816Z,2.60
2023-02-26T12:15:49.246Z,3.10
2023-02-26T12:19:02.221Z,3.60
2023-02-26T12:22:13.989Z,4.10
2023-02-26T12:25:24.500Z,4.90
2023-02-26T12:28:41.891Z,5.20
2023-02-26T12:32:00.844Z,4.70
2023-02-26T12:35:14.729Z,4.00
2023-02-26T12:38:15.429Z,2.80
2023-02-26T12:41:24.316Z,2.10
2023-02-26T12:44:24.938Z,2.00
2023-02-26T12:47:32.164Z,1.80
2023-02-26T12:50:31.922Z,1.60
2023-02-26T12:53:47.034Z,1.70
2023-02-26T12:56:54.555Z,1.80
2023-02-26T12:59:59.122Z,1.70
2023-02-26T13:03:28.030Z,1.50
2023-02-26T13:06:39.020Z,1.70
2023-02-26T13:09:37.369Z,2.50
2023-02-26T13:12:38.895Z,3.10
2023-02-26T13:15:57.603Z,3.30
2023-02-26T13:18:55.118Z,3.10
2023-02-26T13:21:49.426Z,3.10
2023-02-26T13:24:42.515Z,2.50
2023-02-26T13:27:35.692Z,2.10
2023-02-26T13:30:29.645Z,1.80
2023-02-26T13:33:20.990Z,1.60
2023-02-26T13:36:11.943Z,1.60
2023-02-26T13:39:21.682Z,1.60
2023-02-26T13:42:27.001Z,1.70
2023-02-26T13:45:32.059Z,1.70
2023-02-26T13:48:30.724Z,1.60
2023-02-26T13:51:31.807Z,1.40
2023-02-26T13:54:44.460Z,1.20
2023-02-26T13:57:43.910Z,1.00
2023-02-26T14:00:35.622Z,1.00
2023-02-26T14:03:35.116Z,1.10
2023-02-26T14:06:37.788Z,1.10
2023-02-26T14:09:44.366Z,1.00
2023-02-26T14:12:37.194Z,1.10
2023-02-26T14:15:40.879Z,1.40
2023-02-26T14:18:37.879Z,1.80
2023-02-26T14:21:37.510Z,1.60
2023-02-26T14:24:38.212Z,1.40
2023-02-26T14:27:35.135Z,1.40
2023-02-26T14:30:31.385Z,1.40
2023-02-26T14:33:28.132Z,1.40
2023-02-26T14:36:25.277Z,1.30
2023-02-26T14:39:25.286Z,1.20
2023-02-26T14:42:18.623Z,1.10
2023-02-26T14:45:31.756Z,1.20
2023-02-26T14:48:25.262Z,1.10
2023-02-26T14:51:24.191Z,1.00
2023-02-26T14:54:34.629Z,0.90
2023-02-26T14:57:32.132Z,0.80
2023-02-26T15:00:32.479Z,0.80
2023-02-26T15:03:40.269Z,0.90
2023-02-26T15:06:49.171Z,1.00
2023-02-26T15:09:49.574Z,1.10
2023-02-26T15:12:50.134Z,1.30
2023-02-26T15:15:46.741Z,1.40
2023-02-26T15:19:05.591Z,1.20
2023-02-26T15:22:04.667Z,1.10
2023-02-26T15:24:54.813Z,1.00
2023-02-26T15:27:43.616Z,0.90
2023-02-26T15:30:34.698Z,0.80
2023-02-26T15:33:26.110Z,0.80
2023-02-26T15:36:18.794Z,0.80
2023-02-26T15:39:10.336Z,0.80
2023-02-26T15:42:01.876Z,0.70
2023-02-26T15:44:57.209Z,0.70
2023-02-26T15:47:46.091Z,0.70
2023-02-26T15:50:37.367Z,0.60
2023-02-26T15:53:30.883Z,0.50
2023-02-26T15:56:24.615Z,0.40
2023-02-26T15:59:18.660Z,0.50
2023-02-26T16:02:13.710Z,0.40
2023-02-26T16:05:03.703Z,0.40
2023-02-26T16:07:52.767Z,0.40
2023-02-26T16:10:43.966Z,0.40
2023-02-26T16:13:37.761Z,0.40
2023-02-26T16:16:30.357Z,0.40
2023-02-26T16:19:22.097Z,0.30
2023-02-26T16:22:21.016Z,0.20
2023-02-26T16:25:16.573Z,0.20
2023-02-26T16:28:07.790Z,0.20
2023-02-26T16:30:59.035Z,0.20
2023-02-26T16:33:58.751Z,0.20
2023-02-26T16:36:48.321Z,0.10
2023-02-26T16:39:36.884Z,0.00
2023-02-26T16:42:37.862Z,-0.10
2023-02-26T16:45:49.255Z,-0.20
2023-02-26T16:48:41.477Z,-0.30
2023-02-26T16:51:37.362Z,-0.30
2023-02-26T16:54:28.609Z,-0.30
2023-02-26T16:57:20.895Z,-0.40
2023-02-26T17:00:17.780Z,-0.30
2023-02-26T17:03:16.554Z,-0.30
2023-02-26T17:06:08.598Z,-0.30
2023-02-26T17:09:01.927Z,-0.30
2023-02-26T17:11:50.585Z,-0.40
2023-02-26T17:14:42.098Z,-0.40
2023-02-26T17:17:30.690Z,-0.40
2023-02-26T17:20:19.494Z,-0.40
2023-02-26T17:23:10.032Z,-0.40
2023-02-26T17:26:02.474Z,-0.40
2023-02-26T17:28:51.308Z,-0.40
2023-02-26T17:31:43.718Z,-0.40
2023-02-26T17:34:32.504Z,-0.50
2023-02-26T17:37:21.777Z,-0.50
2023-02-26T17:40:22.690Z,-0.50
2023-02-26T17:43:12.854Z,-0.50
2023-02-26T17:46:01.482Z,-0.50
2023-02-26T17:48:50.319Z,-0.50
2023-02-26T17:51:39.562Z,-0.50
2023-02-26T17:54:28.184Z,-0.50
2023-02-26T17:57:19.466Z,-0.50
2023-02-26T18:00:15.013Z,-0.50
2023-02-26T18:03:04.749Z,-0.50
2023-02-26T18:05:55.878Z,-0.50
2023-02-26T18:08:46.775Z,-0.50
2023-02-26T18:11:35.449Z,-0.60
2023-02-26T18:14:24.107Z,-0.60
2023-02-26T18:17:15.880Z,-0.60
2023-02-26T18:20:06.856Z,-0.70
2023-02-26T18:22:55.464Z,-0.70
2023-02-26T18:25:45.521Z,-0.70
2023-02-26T18:28:34.660Z,-0.70
2023-02-26T18:31:23.906Z,-0.80
2023-02-26T18:34:14.364Z,-0.90
2023-02-26T18:37:04.513Z,-0.80
2023-02-26T18:39:53.727Z,-0.80
2023-02-26T18:42:42.403Z,-0.90
2023-02-26T18:45:31.272Z,-0.90
2023-02-26T18:48:21.578Z,-1.00
2023-02-26T18:51:11.639Z,-1.00
2023-02-26T18:54:00.252Z,-1.00
2023-02-26T18:56:48.906Z,-1.10
2023-02-26T18:59:37.701Z,-1.10
2023-02-26T19:02:26.701Z,-1.10
2023-02-26T19:05:16.532Z,-1.20
2023-02-26T19:08:07.345Z,-1.20
2023-02-26T19:10:56.033Z,-1.20
2023-02-26T19:13:45.421Z,-1.20
2023-02-26T19:16:38.174Z,-1.20
2023-02-26T19:19:26.819Z,-1.30
2023-02-26T19:22:16.675Z,-1.30
2023-02-26T19:25:07.966Z,-1.40
2023-02-26T19:27:57.091Z,-1.40
2023-02-26T19:30:45.713Z,-1.30
2023-02-26T19:33:34.486Z,-1.40
2023-02-26T19:36:23.115Z,-1.40
2023-02-26T19:39:12.853Z,-1.40
2023-02-26T19:42:02.822Z,-1.40
2023-02-26T19:44:51.410Z,-1.40
2023-02-26T19:47:40.283Z,-1.40
2023-02-26T19:50:28.945Z,-1.40
2023-02-26T19:53:17.590Z,-1.40
2023-02-26T19:56:07.771Z,-1.50
2023-02-26T19:58:57.844Z,-1.50
2023-02-26T20:01:49.416Z,-1.50
2023-02-26T20:04:38.262Z,-1.50
2023-02-26T20:07:27.193Z,-1.50
2023-02-26T20:10:16.884Z,-1.50
2023-02-26T20:13:05.519Z,-1.50
2023-02-26T20:15:55.556Z,-1.50
2023-02-26T20:18:45.837Z,-1.50
2023-02-26T20:21:34.420Z,-1.50
2023-02-26T20:24:23.369Z,-1.60
2023-02-26T20:27:11.948Z,-1.60
2023-02-26T20:30:00.561Z,-1.70
2023-02-26T20:32:50.708Z,-1.70
2023-02-26T20:35:39.484Z,-1.80
2023-02-26T20:38:28.345Z,-1.80
2023-02-26T20:41:16.964Z,-1.80
2023-02-26T20:44:05.938Z,-1.80
2023-02-26T20:46:55.042Z,-1.80
2023-02-26T20:49:45.087Z,-1.80
2023-02-26T20:52:33.677Z,-1.80
2023-02-26T20:55:22.352Z,-1.90
2023-02-26T20:58:10.939Z,-1.90
2023-02-26T21:00:59.671Z,-2.00
2023-02-26T21:03:48.290Z,-2.00
2023-02-26T21:06:38.611Z,-2.10
2023-02-26T21:09:27.299Z,-2.10
2023-02-26T21:12:16.185Z,-2.10
2023-02-26T21:15:05.666Z,-2.20
2023-02-26T21:17:54.345Z,-2.20
2023-02-26T21:20:43.205Z,-2.20
2023-02-26T21:23:33.910Z,-2.20
2023-02-26T21:26:23.043Z,-2.30
2023-02-26T21:29:11.735Z,-2.30
2023-02-26T21:32:03.543Z,-2.30
2023-02-26T21:34:52.261Z,-2.40
2023-02-26T21:37:40.831Z,-2.50
2023-02-26T21:40:31.853Z,-2.50
2023-02-26T21:43:20.413Z,-2.50
2023-02-26T21:46:09.090Z,-2.60
2023-02-26T21:48:58.188Z,-2.60
2023-02-26T21:51:46.780Z,-2.60
2023-02-26T21:54:35.458Z,-2.60
2023-02-26T21:57:25.650Z,-2.60
2023-02-26T22:00:16.192Z,-2.60
2023-02-26T22:03:05.318Z,-2.60
2023-02-26T22:05:54.266Z,-2.60
2023-02-26T22:08:42.909Z,-2.70
2023-02-26T22:11:31.648Z,-2.70
2023-02-26T22:14:22.098Z,-2.70
2023-02-26T22:17:10.782Z,-2.80
2023-02-26T22:19:59.454Z,-2.80
2023-02-26T22:22:48.014Z,-2.80
2023-02-26T22:25:38.494Z,-2.90
2023-02-26T22:28:27.147Z,-2.90
2023-02-26T22:31:17.334Z,-2.90
2023-02-26T22:34:06.036Z,-2.90
2023-02-26T22:36:55.022Z,-2.90
2023-02-26T22:39:43.679Z,-3.00
2023-02-26T22:42:32.462Z,-3.00
2023-02-26T22:45:21.231Z,-3.00
2023-02-26T22:48:11.259Z,-3.00
2023-02-26T22:50:59.864Z,-3.10
2023-02-26T22:53:48.469Z,-3.10
2023-02-26T22:56:37.092Z,-3.10
2023-02-26T22:59:25.666Z,-3.10
2023-02-26T23:02:14.336Z,-3.20
2023-02-26T23:05:04.666Z,-3.20
2023-02-26T23:07:53.258Z,-3.20
2023-02-26T23:10:41.877Z,-3.20
2023-02-26T23:13:34.360Z,-3.20
2023-02-26T23:16:23.002Z,-3.20
2023-02-26T23:19:11.778Z,-3.20
2023-02-26T23:22:02.018Z,-3.20
2023-02-26T23:24:50.583Z,-3.20
2023-02-26T23:27:39.309Z,-3.30
2023-02-26T23:30:28.345Z,-3.30
2023-02-26T23:33:17.104Z,-3.30
2023-02-26T23:36:06.271Z,-3.30
2023-02-26T23:38:56.273Z,-3.30
2023-02-26T23:41:44.909Z,-3.30
2023-02-26T23:44:33.831Z,-3.20
2023-02-26T23:47:22.481Z,-3.30
2023-02-26T23:50:12.388Z,-3.30
2023-02-26T23:53:01.140Z,-3.30
2023-02-26T23:55:57.116Z,-3.40
2023-02-26T23:58:45.882Z,-3.40
